createdAt,value
2022-11-09T00:01:03.637Z,15.83
2022-11-09T00:03:30.590Z,16.17
2022-11-09T00:05:59.339Z,16.77
2022-11-09T00:08:27.052Z,15.73
2022-11-09T00:10:54.185Z,16.47
2022-11-09T00:13:22.138Z,17.93
2022-11-09T00:15:49.574Z,16.67
2022-11-09T00:18:16.488Z,16.57
2022-11-09T00:20:47.726Z,17.10
2022-11-09T00:23:16.353Z,15.90
2022-11-09T00:25:43.640Z,17.00
2022-11-09T00:28:10.660Z,16.90
2022-11-09T00:30:37.674Z,17.70
2022-11-09T00:33:04.641Z,17.47
2022-11-09T00:35:31.763Z,16.67
2022-11-09T00:37:58.864Z,17.10
2022-11-09T00:40:25.850Z,16.97
2022-11-09T00:42:52.855Z,17.77
2022-11-09T00:45:20.375Z,17.43
2022-11-09T00:47:47.311Z,17.13
2022-11-09T00:50:14.258Z,16.63
2022-11-09T00:52:41.265Z,16.87
2022-11-09T00:55:08.733Z,18.03
2022-11-09T00:57:35.667Z,16.47
2022-11-09T01:00:02.842Z,16.13
2022-11-09T01:02:29.734Z,17.83
2022-11-09T01:04:57.103Z,17.30
2022-11-09T01:07:24.011Z,17.80
2022-11-09T01:09:50.945Z,18.83
2022-11-09T01:12:17.853Z,17.43
2022-11-09T01:14:44.919Z,17.03
2022-11-09T01:17:11.835Z,16.47
2022-11-09T01:19:38.752Z,16.53
2022-11-09T01:22:05.655Z,17.63
2022-11-09T01:24:32.590Z,17.50
2022-11-09T01:26:59.494Z,17.80
2022-11-09T01:29:26.417Z,17.33
2022-11-09T01:31:55.988Z,18.40
2022-11-09T01:34:23.000Z,16.87
2022-11-09T01:36:52.670Z,17.57
2022-11-09T01:39:20.030Z,18.13
2022-11-09T01:41:47.608Z,16.67
2022-11-09T01:44:20.115Z,17.87
2022-11-09T01:47:21.901Z,18.67
2022-11-09T01:50:00.144Z,19.20
2022-11-09T01:52:36.898Z,18.00
2022-11-09T01:55:12.651Z,17.80
2022-11-09T01:57:50.082Z,19.80
2022-11-09T02:00:18.252Z,17.87
2022-11-09T02:02:57.258Z,18.67
2022-11-09T02:05:29.726Z,18.73
2022-11-09T02:07:58.389Z,17.33
2022-11-09T02:10:55.081Z,18.10
2022-11-09T02:13:24.811Z,19.33
2022-11-09T02:15:52.828Z,19.07
2022-11-09T02:18:20.413Z,18.93
2022-11-09T02:20:57.833Z,19.17
2022-11-09T02:23:26.876Z,17.67
2022-11-09T02:26:00.311Z,19.03
2022-11-09T02:28:27.934Z,18.37
2022-11-09T02:30:57.096Z,18.43
2022-11-09T02:33:24.562Z,19.93
2022-11-09T02:35:52.002Z,18.80
2022-11-09T02:38:18.950Z,19.03
2022-11-09T02:40:50.172Z,20.30
2022-11-09T02:43:18.413Z,18.90
2022-11-09T02:45:45.682Z,19.93
2022-11-09T02:48:12.656Z,19.77
2022-11-09T02:50:39.629Z,21.20
2022-11-09T02:53:06.640Z,18.43
2022-11-09T02:55:33.606Z,19.30
2022-11-09T02:58:00.601Z,19.83
2022-11-09T03:00:27.548Z,19.50
2022-11-09T03:02:54.740Z,19.10
2022-11-09T03:05:21.684Z,19.40
2022-11-09T03:07:48.618Z,19.07
2022-11-09T03:10:15.705Z,18.93
2022-11-09T03:12:42.735Z,19.70
2022-11-09T03:15:10.205Z,18.00
2022-11-09T03:17:37.425Z,18.13
2022-11-09T03:20:05.118Z,19.97
2022-11-09T03:22:32.195Z,20.17
2022-11-09T03:24:59.112Z,19.17
2022-11-09T03:27:26.075Z,20.30
2022-11-09T03:29:53.003Z,21.67
2022-11-09T03:32:19.922Z,20.63
2022-11-09T03:34:46.874Z,20.63
2022-11-09T03:37:13.866Z,19.90
2022-11-09T03:39:40.847Z,21.77
2022-11-09T03:42:07.785Z,20.83
2022-11-09T03:44:34.698Z,19.97
2022-11-09T03:47:01.724Z,19.87
2022-11-09T03:49:28.678Z,21.13
2022-11-09T03:51:55.566Z,20.40
2022-11-09T03:54:22.508Z,20.07
2022-11-09T03:56:49.378Z,19.43
2022-11-09T03:59:16.347Z,21.77
2022-11-09T04:01:43.312Z,21.07
2022-11-09T04:04:10.414Z,19.87
2022-11-09T04:06:37.355Z,21.47
2022-11-09T04:09:04.406Z,20.53
2022-11-09T04:11:31.420Z,20.23
2022-11-09T04:13:58.401Z,21.17
2022-11-09T04:16:25.449Z,20.13
2022-11-09T04:18:52.400Z,19.63
2022-11-09T04:21:23.708Z,21.37
2022-11-09T04:23:51.088Z,20.80
2022-11-09T04:26:18.106Z,20.60
2022-11-09T04:28:45.129Z,20.77
2022-11-09T04:31:12.060Z,21.30
2022-11-09T04:33:38.988Z,21.93
2022-11-09T04:36:06.200Z,19.63
2022-11-09T04:38:33.250Z,21.90
2022-11-09T04:41:01.952Z,21.07
2022-11-09T04:43:29.129Z,22.00
2022-11-09T04:45:59.146Z,21.57
2022-11-09T04:48:26.176Z,21.20
2022-11-09T04:50:53.154Z,20.27
2022-11-09T04:53:20.380Z,21.10
2022-11-09T04:55:47.656Z,20.93
2022-11-09T04:58:14.581Z,22.97
2022-11-09T05:00:41.555Z,21.17
2022-11-09T05:03:08.833Z,22.10
2022-11-09T05:05:38.304Z,21.10
2022-11-09T05:08:06.510Z,22.07
2022-11-09T05:10:34.240Z,21.53
2022-11-09T05:13:07.055Z,20.97
2022-11-09T05:15:35.749Z,21.13
2022-11-09T05:18:03.808Z,20.80
2022-11-09T05:20:32.004Z,20.40
2022-11-09T05:23:19.305Z,21.27
2022-11-09T05:25:47.599Z,20.10
2022-11-09T05:28:14.956Z,20.97
2022-11-09T05:30:42.003Z,21.13
2022-11-09T05:33:09.041Z,21.10
2022-11-09T05:35:35.973Z,18.03
2022-11-09T05:38:02.977Z,21.30
2022-11-09T05:40:30.049Z,21.70
2022-11-09T05:42:57.011Z,20.60
2022-11-09T05:45:41.939Z,20.83
2022-11-09T05:48:09.882Z,21.13
2022-11-09T05:50:37.630Z,21.13
2022-11-09T05:53:04.755Z,22.23
2022-11-09T05:55:31.684Z,21.70
2022-11-09T05:57:58.748Z,21.67
2022-11-09T06:00:26.562Z,21.27
2022-11-09T06:02:53.867Z,22.20
2022-11-09T06:05:21.680Z,22.63
2022-11-09T06:07:48.659Z,21.30
2022-11-09T06:10:15.644Z,21.47
2022-11-09T06:12:42.601Z,21.47
2022-11-09T06:15:09.897Z,22.87
2022-11-09T06:17:36.802Z,23.37
2022-11-09T06:20:04.526Z,22.13
2022-11-09T06:22:31.772Z,22.27
2022-11-09T06:24:58.786Z,22.93
2022-11-09T06:27:25.708Z,22.63
2022-11-09T06:29:52.665Z,21.77
2022-11-09T06:32:19.599Z,22.27
2022-11-09T06:34:48.342Z,21.13
2022-11-09T06:37:17.866Z,23.03
2022-11-09T06:39:45.445Z,20.77
2022-11-09T06:42:12.405Z,22.77
2022-11-09T06:44:39.684Z,21.40
2022-11-09T06:47:06.577Z,21.63
2022-11-09T06:49:33.500Z,21.97
2022-11-09T06:52:00.416Z,22.70
2022-11-09T06:54:28.148Z,22.53
2022-11-09T06:56:55.813Z,22.67
2022-11-09T06:59:22.909Z,21.80
2022-11-09T07:01:49.938Z,23.50
2022-11-09T07:04:16.930Z,22.03
2022-11-09T07:06:44.385Z,21.40
2022-11-09T07:09:12.952Z,21.57
2022-11-09T07:11:39.955Z,22.07
2022-11-09T07:14:06.899Z,22.83
2022-11-09T07:16:34.245Z,21.97
2022-11-09T07:19:01.200Z,21.60
2022-11-09T07:21:28.170Z,23.60
2022-11-09T07:23:55.162Z,21.90
2022-11-09T07:26:22.091Z,21.07
2022-11-09T07:28:49.082Z,20.97
2022-11-09T07:31:16.021Z,22.40
2022-11-09T07:33:42.990Z,22.27
2022-11-09T07:36:09.912Z,23.50
2022-11-09T07:38:36.814Z,22.50
2022-11-09T07:41:03.845Z,21.80
2022-11-09T07:43:30.921Z,22.27
2022-11-09T07:45:58.149Z,21.00
2022-11-09T07:48:25.044Z,21.97
2022-11-09T07:50:52.029Z,21.70
2022-11-09T07:53:19.384Z,21.43
2022-11-09T07:55:46.586Z,22.97
2022-11-09T07:58:15.794Z,23.87
2022-11-09T08:00:44.086Z,21.80
2022-11-09T08:03:11.440Z,21.30
2022-11-09T08:05:39.643Z,22.47
2022-11-09T08:08:10.412Z,23.50
2022-11-09T08:10:38.446Z,22.47
2022-11-09T08:13:10.044Z,23.23
2022-11-09T08:15:38.414Z,23.43
2022-11-09T08:18:10.344Z,21.30
2022-11-09T08:20:37.657Z,22.53
2022-11-09T08:23:05.296Z,22.63
2022-11-09T08:25:36.177Z,23.43
2022-11-09T08:28:03.915Z,22.27
2022-11-09T08:30:31.247Z,22.67
2022-11-09T08:33:00.372Z,21.37
2022-11-09T08:35:27.954Z,22.88
2022-11-09T08:37:55.343Z,20.48
2022-11-09T08:40:25.726Z,20.45
2022-11-09T08:42:53.220Z,20.95
2022-11-09T08:45:21.058Z,20.23
2022-11-09T08:47:48.276Z,22.23
2022-11-09T08:50:16.296Z,21.60
2022-11-09T08:52:43.200Z,20.58
2022-11-09T08:55:10.639Z,21.00
2022-11-09T08:57:37.639Z,21.77
2022-11-09T09:00:05.985Z,21.73
2022-11-09T09:02:33.052Z,22.02
2022-11-09T09:05:00.185Z,21.90
2022-11-09T09:07:27.372Z,21.67
2022-11-09T09:09:54.343Z,21.45
2022-11-09T09:12:21.622Z,20.95
2022-11-09T09:14:48.642Z,20.15
2022-11-09T09:17:15.848Z,20.75
2022-11-09T09:19:48.779Z,18.88
2022-11-09T09:22:16.903Z,20.70
2022-11-09T09:24:43.840Z,19.85
2022-11-09T09:27:10.736Z,20.73
2022-11-09T09:29:37.748Z,21.30
2022-11-09T09:32:05.155Z,20.98
2022-11-09T09:34:32.070Z,20.80
2022-11-09T09:36:59.023Z,21.42
2022-11-09T09:39:27.096Z,22.02
2022-11-09T09:42:00.735Z,19.67
2022-11-09T09:44:36.882Z,20.20
2022-11-09T09:47:20.112Z,20.13
2022-11-09T09:50:01.449Z,19.38
2022-11-09T09:53:17.765Z,19.88
2022-11-09T09:55:56.715Z,19.67
2022-11-09T09:58:33.353Z,20.08
2022-11-09T10:01:20.506Z,21.33
2022-11-09T10:03:48.557Z,19.23
2022-11-09T10:06:59.133Z,20.00
2022-11-09T10:09:41.021Z,18.95
2022-11-09T10:12:54.292Z,20.10
2022-11-09T10:15:31.547Z,21.10
2022-11-09T10:18:30.433Z,19.45
2022-11-09T10:21:27.662Z,20.15
2022-11-09T10:24:25.518Z,20.88
2022-11-09T10:26:56.886Z,18.50
2022-11-09T10:29:39.545Z,20.27
2022-11-09T10:32:23.517Z,21.05
2022-11-09T10:34:59.981Z,19.13
2022-11-09T10:37:39.558Z,20.40
2022-11-09T10:40:19.467Z,20.25
2022-11-09T10:43:02.722Z,19.77
2022-11-09T10:45:37.901Z,19.90
2022-11-09T10:48:07.580Z,19.50
2022-11-09T10:50:52.944Z,20.85
2022-11-09T10:53:27.831Z,20.77
2022-11-09T10:55:58.803Z,20.05
2022-11-09T10:58:53.159Z,20.65
2022-11-09T11:01:25.584Z,20.00
2022-11-09T11:03:55.552Z,19.55
2022-11-09T11:06:22.348Z,19.88
2022-11-09T11:08:51.106Z,20.48
2022-11-09T11:11:33.758Z,20.13
2022-11-09T11:14:19.858Z,19.48
2022-11-09T11:16:52.500Z,21.15
2022-11-09T11:19:39.676Z,20.63
2022-11-09T11:22:12.492Z,20.80
2022-11-09T11:24:58.973Z,21.67
2022-11-09T11:27:46.359Z,20.77
2022-11-09T11:30:16.702Z,21.10
2022-11-09T11:32:48.945Z,20.77
2022-11-09T11:35:49.083Z,19.13
2022-11-09T11:38:53.202Z,20.80
2022-11-09T11:41:50.827Z,20.95
2022-11-09T11:44:56.704Z,21.02
2022-11-09T11:48:01.066Z,19.10
2022-11-09T11:50:54.869Z,20.35
2022-11-09T11:53:43.219Z,21.90
2022-11-09T11:56:43.219Z,19.50
2022-11-09T11:59:43.770Z,20.48
2022-11-09T12:03:06.528Z,18.92
2022-11-09T12:06:19.204Z,18.77
2022-11-09T12:09:11.168Z,19.90
2022-11-09T12:12:29.134Z,18.13
2022-11-09T12:15:04.871Z,17.95
2022-11-09T12:18:11.611Z,19.77
2022-11-09T12:21:12.441Z,20.23
2022-11-09T12:23:53.792Z,20.05
2022-11-09T12:27:25.629Z,20.15
2022-11-09T12:30:09.373Z,20.23
2022-11-09T12:33:00.262Z,20.58
2022-11-09T12:35:48.139Z,19.45
2022-11-09T12:38:32.197Z,18.67
2022-11-09T12:41:09.151Z,20.98
2022-11-09T12:44:27.007Z,21.08
2022-11-09T12:47:10.322Z,19.38
2022-11-09T12:49:44.463Z,20.92
2022-11-09T12:52:16.728Z,19.88
2022-11-09T12:54:48.946Z,19.77
2022-11-09T12:57:27.697Z,19.70
2022-11-09T13:00:00.312Z,18.65
2022-11-09T13:02:38.314Z,20.00
2022-11-09T13:05:27.080Z,18.80
2022-11-09T13:07:55.250Z,18.42
2022-11-09T13:10:38.919Z,17.10
2022-11-09T13:13:11.215Z,17.38
2022-11-09T13:16:19.517Z,17.88
2022-11-09T13:18:51.930Z,17.77
2022-11-09T13:21:21.849Z,17.85
2022-11-09T13:24:02.193Z,19.27
2022-11-09T13:26:33.696Z,18.00
2022-11-09T13:29:16.098Z,19.15
2022-11-09T13:32:09.082Z,20.95
2022-11-09T13:35:02.730Z,18.80
2022-11-09T13:37:41.869Z,20.48
2022-11-09T13:40:33.269Z,19.10
2022-11-09T13:43:14.355Z,19.05
2022-11-09T13:45:55.274Z,21.67
2022-11-09T13:48:24.879Z,19.40
2022-11-09T13:50:56.500Z,19.38
2022-11-09T13:54:06.120Z,18.63
2022-11-09T13:56:40.074Z,19.30
2022-11-09T13:59:35.152Z,19.13
2022-11-09T14:02:03.393Z,20.75
2022-11-09T14:04:43.671Z,19.50
2022-11-09T14:07:23.472Z,18.95
2022-11-09T14:10:20.928Z,19.98
2022-11-09T14:13:30.074Z,19.55
2022-11-09T14:16:22.457Z,18.90
2022-11-09T14:19:23.016Z,19.27
2022-11-09T14:21:52.512Z,18.98
2022-11-09T14:24:30.793Z,20.00
2022-11-09T14:27:22.146Z,19.05
2022-11-09T14:29:52.392Z,19.98
2022-11-09T14:32:36.272Z,20.00
2022-11-09T14:35:33.596Z,18.48
2022-11-09T14:38:14.392Z,19.50
2022-11-09T14:40:46.276Z,18.55
2022-11-09T14:43:44.470Z,19.40
2022-11-09T14:46:22.620Z,19.73
2022-11-09T14:48:57.018Z,18.50
2022-11-09T14:51:37.785Z,19.42
2022-11-09T14:54:13.247Z,19.55
2022-11-09T14:56:42.582Z,19.27
2022-11-09T14:59:16.724Z,17.70
2022-11-09T15:02:08.208Z,19.15
2022-11-09T15:04:54.280Z,18.55
2022-11-09T15:07:25.176Z,19.75
2022-11-09T15:09:59.387Z,19.92
2022-11-09T15:12:26.793Z,19.50
2022-11-09T15:15:01.604Z,19.83
2022-11-09T15:17:37.890Z,19.80
2022-11-09T15:20:31.105Z,19.70
2022-11-09T15:23:15.067Z,20.17
2022-11-09T15:25:41.868Z,19.17
2022-11-09T15:28:08.665Z,19.50
2022-11-09T15:30:35.535Z,21.20
2022-11-09T15:33:20.066Z,19.55
2022-11-09T15:36:04.969Z,21.73
2022-11-09T15:38:42.942Z,19.90
2022-11-09T15:41:16.761Z,19.88
2022-11-09T15:43:44.195Z,21.02
2022-11-09T15:46:21.994Z,21.02
2022-11-09T15:48:49.449Z,21.45
2022-11-09T15:51:17.298Z,20.27
2022-11-09T15:53:44.531Z,19.73
2022-11-09T15:56:22.540Z,20.33
2022-11-09T15:58:52.447Z,20.05
2022-11-09T16:01:19.722Z,21.80
2022-11-09T16:03:46.709Z,21.35
2022-11-09T16:06:22.416Z,21.70
2022-11-09T16:08:50.640Z,22.33
2022-11-09T16:11:18.227Z,21.27
2022-11-09T16:13:45.370Z,22.50
2022-11-09T16:16:14.736Z,22.20
2022-11-09T16:18:41.795Z,23.90
2022-11-09T16:21:15.366Z,24.92
2022-11-09T16:23:42.625Z,23.20
2022-11-09T16:26:15.948Z,22.45
2022-11-09T16:28:43.588Z,22.63
2022-11-09T16:31:12.815Z,22.55
2022-11-09T16:33:40.641Z,23.48
2022-11-09T16:36:20.296Z,23.10
2022-11-09T16:38:52.565Z,23.60
2022-11-09T16:41:20.490Z,22.40
2022-11-09T16:43:50.723Z,22.88
2022-11-09T16:46:26.429Z,20.73
2022-11-09T16:48:54.002Z,22.75
2022-11-09T16:51:21.519Z,22.80
2022-11-09T16:53:48.459Z,23.02
2022-11-09T16:56:15.513Z,22.55
2022-11-09T16:58:42.479Z,23.83
2022-11-09T17:01:12.376Z,22.85
2022-11-09T17:03:40.569Z,25.08
2022-11-09T17:06:11.311Z,23.33
2022-11-09T17:08:42.409Z,24.05
2022-11-09T17:11:13.393Z,24.33
2022-11-09T17:13:40.790Z,23.37
2022-11-09T17:16:11.396Z,23.88
2022-11-09T17:18:38.884Z,23.40
2022-11-09T17:21:14.778Z,25.70
2022-11-09T17:23:43.120Z,23.92
2022-11-09T17:26:10.783Z,24.92
2022-11-09T17:28:42.751Z,23.63
2022-11-09T17:31:17.269Z,24.80
2022-11-09T17:33:45.130Z,25.10
2022-11-09T17:36:14.728Z,25.17
2022-11-09T17:38:41.693Z,24.73
2022-11-09T17:41:12.216Z,25.83
2022-11-09T17:43:41.542Z,26.07
2022-11-09T17:46:11.454Z,22.98
2022-11-09T17:48:40.653Z,23.07
2022-11-09T17:51:09.419Z,24.03
2022-11-09T17:53:37.143Z,24.70
2022-11-09T17:56:05.105Z,26.00
2022-11-09T17:58:32.186Z,25.98
2022-11-09T18:01:08.611Z,24.43
2022-11-09T18:03:37.207Z,25.02
2022-11-09T18:06:09.812Z,25.85
2022-11-09T18:08:36.776Z,25.07
2022-11-09T18:11:03.875Z,25.07
2022-11-09T18:13:31.193Z,25.27
2022-11-09T18:15:58.158Z,26.00
2022-11-09T18:18:25.408Z,26.20
2022-11-09T18:20:52.302Z,26.02
2022-11-09T18:23:19.260Z,26.33
2022-11-09T18:25:59.632Z,26.13
2022-11-09T18:28:26.712Z,25.77
2022-11-09T18:30:58.954Z,25.50
2022-11-09T18:33:25.842Z,26.67
2022-11-09T18:36:03.187Z,26.23
2022-11-09T18:38:30.448Z,26.03
2022-11-09T18:41:13.434Z,27.07
2022-11-09T18:43:41.086Z,27.60
2022-11-09T18:46:11.213Z,24.67
2022-11-09T18:48:38.620Z,27.83
2022-11-09T18:51:07.629Z,25.15
2022-11-09T18:53:40.913Z,25.90
2022-11-09T18:56:21.612Z,25.90
2022-11-09T18:58:52.953Z,24.90
2022-11-09T19:01:23.069Z,25.70
2022-11-09T19:03:54.978Z,24.73
2022-11-09T19:06:24.992Z,24.67
2022-11-09T19:09:10.704Z,27.90
2022-11-09T19:11:37.825Z,27.90
2022-11-09T19:14:04.768Z,26.37
2022-11-09T19:16:31.878Z,25.30
2022-11-09T19:18:58.850Z,25.60
2022-11-09T19:21:29.656Z,24.57
2022-11-09T19:23:56.735Z,25.83
2022-11-09T19:26:23.905Z,25.53
2022-11-09T19:28:50.860Z,25.10
2022-11-09T19:31:21.794Z,24.27
2022-11-09T19:33:48.815Z,24.70
2022-11-09T19:36:29.695Z,25.58
2022-11-09T19:38:57.793Z,24.50
2022-11-09T19:41:25.512Z,26.55
2022-11-09T19:43:55.898Z,25.60
2022-11-09T19:46:23.103Z,24.87
2022-11-09T19:48:50.329Z,28.27
2022-11-09T19:51:18.530Z,25.07
2022-11-09T19:53:51.718Z,27.57
2022-11-09T19:56:19.773Z,27.23
2022-11-09T19:58:52.253Z,27.17
2022-11-09T20:01:19.746Z,26.50
2022-11-09T20:03:58.153Z,25.87
2022-11-09T20:06:26.500Z,25.80
2022-11-09T20:08:53.917Z,26.48
2022-11-09T20:11:45.081Z,26.13
2022-11-09T20:14:12.929Z,26.60
2022-11-09T20:16:41.665Z,27.70
2022-11-09T20:19:13.014Z,26.47
2022-11-09T20:21:40.354Z,27.77
2022-11-09T20:24:08.591Z,27.00
2022-11-09T20:26:35.721Z,26.73
2022-11-09T20:29:02.732Z,26.37
2022-11-09T20:31:29.680Z,27.13
2022-11-09T20:33:56.861Z,27.67
2022-11-09T20:36:23.766Z,28.93
2022-11-09T20:38:50.948Z,27.63
2022-11-09T20:41:21.643Z,27.17
2022-11-09T20:43:51.336Z,29.77
2022-11-09T20:46:23.750Z,27.63
2022-11-09T20:48:54.614Z,26.43
2022-11-09T20:51:24.350Z,27.40
2022-11-09T20:53:51.571Z,28.37
2022-11-09T20:56:20.254Z,28.43
2022-11-09T20:58:47.385Z,27.60
2022-11-09T21:01:20.766Z,27.30
2022-11-09T21:03:50.845Z,27.53
2022-11-09T21:06:19.591Z,28.53
2022-11-09T21:08:52.121Z,28.97
2022-11-09T21:11:20.595Z,29.07
2022-11-09T21:13:52.215Z,27.43
2022-11-09T21:16:21.588Z,28.23
2022-11-09T21:18:48.990Z,26.53
2022-11-09T21:21:23.127Z,29.13
2022-11-09T21:24:09.225Z,28.10
2022-11-09T21:26:54.939Z,29.60
2022-11-09T21:29:43.134Z,29.13
2022-11-09T21:32:12.166Z,28.67
2022-11-09T21:34:39.244Z,27.60
2022-11-09T21:37:06.317Z,29.30
2022-11-09T21:39:33.436Z,28.47
2022-11-09T21:42:01.625Z,28.33
2022-11-09T21:44:30.769Z,27.83
2022-11-09T21:46:58.680Z,27.50
2022-11-09T21:49:25.664Z,28.30
2022-11-09T21:51:53.079Z,27.97
2022-11-09T21:54:21.259Z,28.13
2022-11-09T21:56:49.419Z,27.90
2022-11-09T21:59:16.388Z,28.07
2022-11-09T22:01:44.124Z,27.57
2022-11-09T22:04:11.401Z,29.73
2022-11-09T22:06:41.371Z,29.20
2022-11-09T22:09:15.275Z,27.20
2022-11-09T22:12:01.868Z,28.40
2022-11-09T22:14:47.779Z,29.63
2022-11-09T22:17:14.969Z,29.43
2022-11-09T22:20:00.858Z,29.47
2022-11-09T22:22:30.004Z,27.43
2022-11-09T22:24:57.135Z,28.73
2022-11-09T22:27:24.345Z,28.00
2022-11-09T22:29:51.374Z,28.47
2022-11-09T22:32:18.407Z,28.33
2022-11-09T22:34:45.349Z,27.87
2022-11-09T22:37:12.339Z,29.00
2022-11-09T22:39:44.385Z,27.97
2022-11-09T22:42:13.901Z,27.80
2022-11-09T22:44:40.839Z,28.90
2022-11-09T22:47:07.945Z,29.23
2022-11-09T22:49:36.693Z,27.63
2022-11-09T22:52:05.101Z,27.33
2022-11-09T22:54:32.193Z,29.37
2022-11-09T22:56:59.145Z,30.13
2022-11-09T22:59:26.192Z,28.13
2022-11-09T23:01:53.191Z,29.07
2022-11-09T23:04:20.263Z,27.20
2022-11-09T23:06:47.217Z,27.97
2022-11-09T23:09:14.279Z,26.50
2022-11-09T23:11:41.336Z,26.53
2022-11-09T23:14:08.535Z,29.03
2022-11-09T23:16:35.511Z,28.20
2022-11-09T23:19:02.431Z,27.50
2022-11-09T23:21:32.530Z,27.37
2022-11-09T23:24:05.764Z,26.50
2022-11-09T23:26:33.975Z,28.40
2022-11-09T23:29:01.192Z,27.43
2022-11-09T23:31:28.185Z,29.07
2022-11-09T23:33:57.962Z,28.00
2022-11-09T23:36:26.671Z,28.10
2022-11-09T23:38:53.854Z,30.03
2022-11-09T23:41:21.397Z,27.03
2022-11-09T23:43:49.833Z,27.17
2022-11-09T23:46:17.975Z,27.67
2022-11-09T23:48:45.211Z,28.10
2022-11-09T23:51:12.372Z,28.63
2022-11-09T23:53:39.897Z,27.77
2022-11-09T23:56:10.275Z,28.50
2022-11-09T23:58:38.087Z,28.47
